Time;durP1;ratioP1;P1;durP2;ratioP2;P2;SDS_P1;SDS_P2;PMS_P1;PMS_P2;Temp;Humidity;BMP_temperature;BMP_pressure;BME280_temperature;BME280_humidity;BME280_pressure;Samples;Min_cycle;Max_cycle;Signal;HPM_P1;HPM_P2
2022/09/17 00:01:07;;;;;;;0.00;0.00;;;18.50;72.30;;;;;;4159082;28;20061;-62
2022/09/17 00:03:51;;;;;;;0.00;0.00;;;18.50;72.00;;;;;;4159143;28;20212;-62
2022/09/17 00:06:35;;;;;;;0.00;0.00;;;18.50;71.90;;;;;;4159001;28;20408;-62
2022/09/17 00:09:16;;;;;;;0.10;0.10;;;18.50;71.90;;;;;;4165764;28;20051;-62
2022/09/17 00:11:57;;;;;;;;;;;18.40;71.20;;;;;;4178696;28;20163;-64
2022/09/17 00:14:41;;;;;;;0.00;0.00;;;18.40;71.20;;;;;;4162149;28;20383;-62
2022/09/17 00:17:22;;;;;;;0.00;0.00;;;18.40;71.60;;;;;;4162018;28;20060;-62
2022/09/17 00:20:06;;;;;;;0.10;0.10;;;18.40;71.90;;;;;;4188957;28;20190;-63
2022/09/17 00:22:47;;;;;;;0.00;0.00;;;18.40;71.80;;;;;;4193730;28;20056;-63
2022/09/17 00:25:28;;;;;;;0.00;0.00;;;18.40;71.80;;;;;;4194796;28;20067;-62
2022/09/17 00:28:09;;;;;;;0.00;0.00;;;18.40;71.70;;;;;;4193104;28;20142;-62
2022/09/17 00:30:51;;;;;;;0.00;0.00;;;18.40;71.40;;;;;;4176893;28;20122;-62
2022/09/17 00:33:32;;;;;;;0.00;0.00;;;18.40;71.00;;;;;;4178584;28;20475;-62
2022/09/17 00:36:13;;;;;;;0.00;0.00;;;18.40;70.90;;;;;;4177643;28;20055;-63
2022/09/17 00:38:55;;;;;;;0.00;0.00;;;18.40;70.90;;;;;;4178501;28;20503;-63
2022/09/17 00:41:37;;;;;;;0.00;0.00;;;18.40;71.40;;;;;;4177436;28;20186;-62
2022/09/17 00:44:42;;;;;;;0.00;0.00;;;18.30;71.70;;;;;;4178110;28;20114;-63
2022/09/17 00:47:29;;;;;;;0.00;0.00;;;18.30;71.90;;;;;;4177356;28;20063;-62
2022/09/17 00:50:15;;;;;;;0.13;0.13;;;18.30;71.90;;;;;;4178218;28;20047;-62
2022/09/17 00:52:58;;;;;;;0.00;0.00;;;18.30;72.10;;;;;;4177642;28;20052;-62
2022/09/17 00:55:43;;;;;;;0.00;0.00;;;18.30;72.00;;;;;;4177417;28;20227;-63
2022/09/17 00:58:26;;;;;;;0.00;0.00;;;18.30;71.90;;;;;;4177305;28;20614;-62
2022/09/17 01:01:07;;;;;;;0.00;0.00;;;18.30;72.00;;;;;;4177275;28;20075;-63
2022/09/17 01:03:49;;;;;;;0.35;0.35;;;18.30;71.00;;;;;;4176247;28;20063;-62
2022/09/17 01:06:34;;;;;;;0.00;0.00;;;18.30;71.40;;;;;;4176319;28;20075;-62
2022/09/17 01:09:27;;;;;;;0.00;0.00;;;18.30;71.00;;;;;;4174559;28;20052;-62
2022/09/17 01:12:26;;;;;;;0.20;0.20;;;18.30;70.70;;;;;;4177167;28;22085;-62
2022/09/17 01:15:17;;;;;;;0.00;0.00;;;18.30;70.70;;;;;;4167314;28;20097;-62
2022/09/17 01:18:17;;;;;;;0.00;0.00;;;18.30;70.40;;;;;;4174158;28;20056;-63
2022/09/17 01:21:33;;;;;;;0.00;0.00;;;18.30;71.20;;;;;;4164505;28;20060;-63
2022/09/17 01:24:46;;;;;;;0.10;0.10;;;18.30;70.50;;;;;;4169675;28;20106;-63
2022/09/17 01:28:05;;;;;;;0.65;0.65;;;18.30;70.80;;;;;;4158016;28;20147;-63
2022/09/17 01:31:29;;;;;;;0.00;0.00;;;18.20;70.70;;;;;;4141505;28;20105;-63
2022/09/17 01:34:26;;;;;;;0.00;0.00;;;18.20;70.30;;;;;;4118163;28;20096;-62
2022/09/17 01:37:16;;;;;;;0.38;0.38;;;18.20;70.60;;;;;;4175947;28;20536;-62
2022/09/17 01:40:08;;;;;;;0.00;0.00;;;18.20;70.50;;;;;;4166427;28;20071;-62
2022/09/17 01:42:54;;;;;;;0.90;0.70;;;18.20;70.80;;;;;;4177443;28;20055;-61
2022/09/17 01:45:42;;;;;;;0.38;0.38;;;18.20;70.80;;;;;;4155031;28;20125;-61
2022/09/17 01:48:34;;;;;;;0.22;0.22;;;18.20;71.10;;;;;;4138814;28;20044;-61
2022/09/17 01:51:21;;;;;;;0.00;0.00;;;18.10;70.70;;;;;;4146557;28;20711;-61
2022/09/17 01:54:10;;;;;;;0.00;0.00;;;18.10;70.90;;;;;;4147315;28;20128;-62
2022/09/17 01:57:05;;;;;;;0.00;0.00;;;18.20;70.80;;;;;;4160405;28;20047;-60
2022/09/17 01:59:55;;;;;;;0.00;0.00;;;18.20;71.10;;;;;;4176278;28;20094;-61
2022/09/17 02:02:40;;;;;;;0.00;0.00;;;18.20;71.40;;;;;;4165594;28;20068;-60
2022/09/17 02:05:31;;;;;;;0.00;0.00;;;18.20;72.20;;;;;;4184008;28;20056;-61
2022/09/17 02:08:18;;;;;;;0.00;0.00;;;18.20;71.20;;;;;;4172663;28;20605;-61
2022/09/17 02:11:09;;;;;;;0.05;0.05;;;18.20;71.20;;;;;;4172444;27;20052;-61
2022/09/17 02:13:55;;;;;;;0.00;0.00;;;18.20;71.10;;;;;;4165227;28;20071;-61
2022/09/17 02:16:47;;;;;;;0.43;0.43;;;18.20;71.20;;;;;;4160354;28;20053;-61
2022/09/17 02:19:32;;;;;;;0.00;0.00;;;18.20;71.10;;;;;;4172833;28;20055;-61
2022/09/17 02:22:22;;;;;;;0.00;0.00;;;18.20;71.10;;;;;;4161243;28;20051;-61
2022/09/17 02:25:10;;;;;;;0.00;0.00;;;18.20;71.10;;;;;;4158878;28;20051;-62
2022/09/17 02:28:05;;;;;;;0.00;0.00;;;18.20;71.20;;;;;;4142876;28;20053;-62
2022/09/17 02:30:50;;;;;;;0.00;0.00;;;18.20;71.20;;;;;;4104658;28;20517;-62
2022/09/17 02:33:34;;;;;;;6.80;0.75;;;18.20;71.10;;;;;;4132807;28;20061;-62
2022/09/17 02:36:15;;;;;;;0.00;0.00;;;18.20;71.20;;;;;;4142707;28;20530;-62
2022/09/17 02:39:01;;;;;;;0.00;0.00;;;18.20;71.10;;;;;;4149308;28;20681;-62
2022/09/17 02:41:53;;;;;;;0.00;0.00;;;18.20;71.10;;;;;;4172696;28;20060;-63
2022/09/17 02:44:54;;;;;;;0.00;0.00;;;18.20;70.80;;;;;;4157772;28;20144;-63
2022/09/17 02:48:04;;;;;;;0.00;0.00;;;18.20;70.60;;;;;;4141082;28;20045;-63
2022/09/17 02:51:04;;;;;;;0.00;0.00;;;18.10;70.70;;;;;;4155895;28;20203;-63
2022/09/17 02:53:56;;;;;;;0.00;0.00;;;18.10;71.60;;;;;;4158906;28;20138;-63
2022/09/17 02:56:46;;;;;;;0.00;0.00;;;18.10;70.60;;;;;;4159276;28;20131;-63
2022/09/17 02:59:36;;;;;;;0.60;0.55;;;18.10;70.60;;;;;;4150700;28;20207;-63
2022/09/17 03:02:22;;;;;;;0.00;0.00;;;18.10;70.60;;;;;;4162223;28;20211;-62
2022/09/17 03:05:05;;;;;;;0.05;0.05;;;18.10;70.60;;;;;;4158375;28;20044;-63
2022/09/17 03:07:47;;;;;;;0.00;0.00;;;18.10;68.40;;;;;;4159231;28;20420;-62
2022/09/17 03:10:33;;;;;;;0.00;0.00;;;18.10;68.60;;;;;;4171573;28;20719;-63
2022/09/17 03:13:15;;;;;;;0.00;0.00;;;18.10;69.40;;;;;;4171015;28;20051;-63
2022/09/17 03:15:56;;;;;;;0.00;0.00;;;18.10;69.80;;;;;;4190358;28;20055;-62
2022/09/17 03:18:37;;;;;;;0.00;0.00;;;18.10;70.00;;;;;;4191040;28;20071;-63
2022/09/17 03:21:22;;;;;;;0.00;0.00;;;18.00;69.70;;;;;;4156454;28;20052;-63
2022/09/17 03:24:04;;;;;;;0.00;0.00;;;18.10;69.90;;;;;;4189569;28;20121;-63
2022/09/17 03:26:48;;;;;;;0.00;0.00;;;18.00;69.60;;;;;;4189016;28;20082;-63
2022/09/17 03:29:30;;;;;;;0.10;0.10;;;18.00;69.90;;;;;;4189064;28;20051;-63
2022/09/17 03:32:11;;;;;;;0.00;0.00;;;18.00;70.10;;;;;;4174972;28;20052;-63
2022/09/17 03:34:53;;;;;;;;;;;18.00;70.10;;;;;;4159526;28;20645;-63
2022/09/17 03:37:34;;;;;;;;;;;18.00;70.30;;;;;;4159836;28;19944;-63
2022/09/17 03:40:15;;;;;;;0.08;0.08;;;18.00;70.20;;;;;;4171091;28;20449;-63
2022/09/17 03:42:56;;;;;;;0.20;0.20;;;18.00;70.10;;;;;;4188657;28;20051;-62
2022/09/17 03:45:38;;;;;;;0.00;0.00;;;18.00;70.30;;;;;;4159632;28;20052;-62
2022/09/17 03:48:19;;;;;;;0.00;0.00;;;18.00;70.40;;;;;;4159176;28;20072;-61
2022/09/17 03:51:00;;;;;;;0.00;0.00;;;18.00;71.20;;;;;;4159011;28;20052;-61
2022/09/17 03:53:41;;;;;;;2.08;0.75;;;18.00;70.40;;;;;;4159323;28;20103;-61
2022/09/17 03:56:22;;;;;;;0.00;0.00;;;18.00;70.40;;;;;;4183444;28;20145;-61
2022/09/17 03:59:03;;;;;;;0.00;0.00;;;18.00;70.40;;;;;;4192355;28;20059;-62
2022/09/17 04:01:45;;;;;;;1.95;1.85;;;18.00;70.50;;;;;;4191997;28;20059;-61
2022/09/17 04:04:27;;;;;;;0.00;0.00;;;18.00;70.50;;;;;;4191980;28;20491;-61
2022/09/17 04:07:08;;;;;;;0.00;0.00;;;18.00;70.50;;;;;;4192129;28;20043;-61
2022/09/17 04:09:49;;;;;;;0.22;0.22;;;18.00;70.50;;;;;;4183580;28;20106;-61
2022/09/17 04:12:30;;;;;;;0.00;0.00;;;18.00;70.50;;;;;;4175438;28;20056;-63
2022/09/17 04:15:11;;;;;;;1.35;0.95;;;17.90;70.60;;;;;;4174738;28;20114;-62
2022/09/17 04:17:57;;;;;;;;;;;18.00;70.70;;;;;;4175574;28;20051;-61
2022/09/17 04:20:39;;;;;;;0.00;0.00;;;17.90;70.40;;;;;;4175191;28;19986;-62
2022/09/17 04:23:20;;;;;;;1.17;1.02;;;17.90;70.30;;;;;;4161721;28;20507;-61
2022/09/17 04:26:01;;;;;;;0.00;0.00;;;17.90;70.30;;;;;;4174813;28;20218;-62
2022/09/17 04:28:42;;;;;;;0.13;0.13;;;17.90;70.30;;;;;;4175114;28;20071;-62
2022/09/17 04:31:25;;;;;;;0.00;0.00;;;17.90;70.20;;;;;;4173976;28;20044;-65
2022/09/17 04:34:08;;;;;;;0.00;0.00;;;17.90;69.50;;;;;;4175087;28;20052;-64
2022/09/17 04:36:49;;;;;;;0.00;0.00;;;17.90;69.10;;;;;;4158525;28;20183;-62
2022/09/17 04:39:29;;;;;;;0.00;0.00;;;17.90;69.60;;;;;;4163717;28;20056;-62
2022/09/17 04:42:10;;;;;;;0.00;0.00;;;17.90;69.70;;;;;;4173158;28;20511;-62
2022/09/17 04:44:51;;;;;;;0.00;0.00;;;17.90;69.80;;;;;;4175332;28;20174;-61
2022/09/17 04:47:32;;;;;;;0.00;0.00;;;17.80;69.70;;;;;;4175114;28;20110;-62
2022/09/17 04:50:14;;;;;;;0.00;0.00;;;17.80;69.80;;;;;;4174749;28;20048;-61
2022/09/17 04:52:55;;;;;;;0.00;0.00;;;17.80;69.90;;;;;;4161154;28;20195;-62
2022/09/17 04:55:36;;;;;;;0.00;0.00;;;17.80;70.00;;;;;;4175507;28;20230;-62
2022/09/17 04:58:21;;;;;;;0.00;0.00;;;17.80;70.00;;;;;;4173843;28;20056;-61
2022/09/17 05:01:02;;;;;;;0.00;0.00;;;17.80;69.90;;;;;;4166921;28;20052;-62
2022/09/17 05:03:45;;;;;;;0.00;0.00;;;17.80;70.00;;;;;;4183603;28;20066;-62
2022/09/17 05:06:27;;;;;;;0.00;0.00;;;17.80;70.10;;;;;;4196440;28;20058;-62
2022/09/17 05:09:08;;;;;;;0.00;0.00;;;17.80;71.10;;;;;;4189634;28;20067;-62
2022/09/17 05:11:52;;;;;;;0.00;0.00;;;17.80;70.30;;;;;;4170136;28;20052;-62
2022/09/17 05:14:33;;;;;;;1.90;1.75;;;17.80;70.30;;;;;;4184628;28;20191;-62
2022/09/17 05:17:16;;;;;;;0.00;0.00;;;17.80;70.40;;;;;;4176826;28;20507;-62
2022/09/17 05:19:57;;;;;;;0.00;0.00;;;17.80;70.40;;;;;;4176188;28;20055;-62
2022/09/17 05:22:42;;;;;;;0.00;0.00;;;17.80;70.40;;;;;;4177510;28;20400;-62
2022/09/17 05:25:23;;;;;;;0.20;0.20;;;17.80;70.50;;;;;;4177743;28;20044;-61
2022/09/17 05:28:04;;;;;;;0.00;0.00;;;17.80;70.50;;;;;;4177549;28;20055;-62
2022/09/17 05:30:45;;;;;;;3.88;2.53;;;17.80;70.50;;;;;;4177653;28;20708;-62
2022/09/17 05:33:26;;;;;;;0.00;0.00;;;17.80;70.50;;;;;;4188702;28;20067;-61
2022/09/17 05:36:07;;;;;;;0.00;0.00;;;17.80;70.60;;;;;;4193932;28;20060;-61
2022/09/17 05:38:49;;;;;;;0.00;0.00;;;17.80;70.50;;;;;;4194007;28;20064;-61
2022/09/17 05:41:30;;;;;;;0.00;0.00;;;17.80;71.30;;;;;;4186698;28;20506;-60
2022/09/17 05:44:11;;;;;;;0.00;0.00;;;17.80;70.60;;;;;;4193908;28;20051;-61
2022/09/17 05:46:58;;;;;;;0.00;0.00;;;17.80;70.90;;;;;;4192916;28;20482;-62
2022/09/17 05:49:45;;;;;;;0.13;0.13;;;17.80;70.90;;;;;;4181693;28;20087;-61
2022/09/17 05:52:28;;;;;;;0.00;0.00;;;17.80;70.80;;;;;;4173614;28;20059;-62
2022/09/17 05:55:13;;;;;;;0.00;0.00;;;17.80;70.70;;;;;;4176079;28;20043;-62
2022/09/17 05:57:58;;;;;;;0.05;0.05;;;17.80;70.80;;;;;;4171772;28;20568;-62
2022/09/17 06:00:47;;;;;;;0.65;0.65;;;17.80;70.80;;;;;;4167485;28;20063;-62
2022/09/17 06:03:31;;;;;;;0.00;0.00;;;17.80;70.60;;;;;;4169135;28;20144;-62
2022/09/17 06:06:12;;;;;;;0.00;0.00;;;17.80;70.50;;;;;;4152772;28;20400;-62
2022/09/17 06:08:54;;;;;;;0.00;0.00;;;17.80;70.30;;;;;;4173140;28;20133;-62
2022/09/17 06:11:37;;;;;;;0.00;0.00;;;17.80;70.30;;;;;;4176703;28;20055;-62
2022/09/17 06:14:18;;;;;;;0.00;0.00;;;17.80;70.20;;;;;;4177158;28;20091;-62
2022/09/17 06:16:59;;;;;;;2.30;1.38;;;17.80;70.20;;;;;;4177266;28;20052;-62
2022/09/17 06:19:40;;;;;;;0.00;0.00;;;17.80;70.10;;;;;;4160439;28;20080;-62
2022/09/17 06:22:22;;;;;;;0.00;0.00;;;17.80;70.10;;;;;;4159852;28;20404;-62
2022/09/17 06:25:03;;;;;;;0.43;0.43;;;17.80;69.80;;;;;;4147047;28;20060;-62
2022/09/17 06:27:46;;;;;;;0.00;0.00;;;17.80;69.90;;;;;;4160398;28;20056;-62
2022/09/17 06:30:27;;;;;;;0.00;0.00;;;17.80;70.40;;;;;;4160737;28;20049;-62
2022/09/17 06:33:07;;;;;;;0.00;0.00;;;17.80;71.30;;;;;;4160129;28;20109;-62
2022/09/17 06:35:49;;;;;;;0.00;0.00;;;17.80;71.50;;;;;;4162706;28;20086;-60
2022/09/17 06:38:32;;;;;;;0.10;0.10;;;17.80;71.80;;;;;;4176655;28;20047;-61
2022/09/17 06:41:15;;;;;;;0.10;0.10;;;17.80;71.70;;;;;;4176217;28;20060;-62
2022/09/17 06:43:58;;;;;;;0.00;0.00;;;17.80;75.30;;;;;;4176188;28;20175;-62
2022/09/17 06:46:39;;;;;;;4.30;1.88;;;17.80;78.70;;;;;;4174429;28;20060;-62
2022/09/17 06:49:21;;;;;;;0.40;0.38;;;17.90;80.60;;;;;;4176575;28;20114;-62
2022/09/17 06:52:03;;;;;;;0.00;0.00;;;17.90;79.00;;;;;;4160100;28;20082;-62
2022/09/17 06:54:43;;;;;;;0.50;0.50;;;17.90;77.70;;;;;;4159380;28;20068;-62
2022/09/17 06:57:25;;;;;;;0.00;0.00;;;17.90;76.60;;;;;;4159871;28;20518;-62
2022/09/17 07:00:08;;;;;;;0.00;0.00;;;17.90;75.90;;;;;;4160190;28;20045;-62
2022/09/17 07:02:57;;;;;;;0.00;0.00;;;17.90;75.30;;;;;;4159980;28;20064;-62
2022/09/17 07:05:37;;;;;;;0.00;0.00;;;17.90;74.90;;;;;;4173396;28;20060;-62
2022/09/17 07:08:18;;;;;;;0.00;0.00;;;17.90;74.50;;;;;;4176295;28;20388;-62
2022/09/17 07:11:01;;;;;;;0.00;0.00;;;17.90;74.30;;;;;;4159642;28;20519;-62
2022/09/17 07:13:42;;;;;;;0.00;0.00;;;17.90;74.30;;;;;;4158841;28;20491;-62
2022/09/17 07:16:25;;;;;;;0.00;0.00;;;17.90;74.10;;;;;;4159891;28;20048;-61
2022/09/17 07:19:06;;;;;;;0.30;0.30;;;18.00;74.00;;;;;;4181536;28;20081;-62
2022/09/17 07:21:49;;;;;;;0.20;0.20;;;18.00;73.80;;;;;;4183114;28;20071;-62
2022/09/17 07:24:32;;;;;;;;;;;18.10;73.50;;;;;;4186973;28;20098;-62
2022/09/17 07:27:21;;;;;;;0.00;0.00;;;18.00;73.30;;;;;;4171254;28;19931;-61
2022/09/17 07:30:04;;;;;;;0.00;0.00;;;18.10;72.90;;;;;;4170796;28;20060;-62
2022/09/17 07:32:54;;;;;;;0.30;0.30;;;18.10;71.60;;;;;;4172706;28;20163;-62
2022/09/17 07:35:41;;;;;;;0.00;0.00;;;18.00;71.60;;;;;;4173540;28;20059;-61
2022/09/17 07:38:23;;;;;;;0.00;0.00;;;18.00;71.10;;;;;;4157972;28;20064;-62
2022/09/17 07:41:08;;;;;;;0.00;0.00;;;18.00;71.30;;;;;;4160670;28;20068;-63
2022/09/17 07:43:52;;;;;;;0.00;0.00;;;18.00;71.20;;;;;;4177735;28;20418;-63
2022/09/17 07:46:40;;;;;;;0.00;0.00;;;18.00;70.90;;;;;;4173381;28;20121;-63
2022/09/17 07:49:23;;;;;;;0.00;0.00;;;18.00;70.90;;;;;;4157615;28;20048;-62
2022/09/17 07:52:08;;;;;;;0.00;0.00;;;18.00;70.70;;;;;;4155787;28;20048;-63
2022/09/17 07:54:52;;;;;;;0.00;0.00;;;18.10;70.60;;;;;;4160090;28;20062;-63
2022/09/17 07:57:33;;;;;;;0.00;0.00;;;18.10;70.60;;;;;;4174229;28;20075;-63
2022/09/17 08:00:15;;;;;;;0.00;0.00;;;18.10;70.90;;;;;;4175449;28;20126;-62
2022/09/17 08:02:56;;;;;;;0.00;0.00;;;18.10;69.80;;;;;;4175706;28;20154;-63
2022/09/17 08:05:39;;;;;;;0.00;0.00;;;18.10;69.10;;;;;;4175476;28;20099;-62
2022/09/17 08:08:20;;;;;;;0.00;0.00;;;18.00;69.20;;;;;;4175758;28;20080;-62
2022/09/17 08:11:01;;;;;;;0.00;0.00;;;18.00;69.20;;;;;;4175577;28;20510;-62
2022/09/17 08:13:43;;;;;;;;;;;18.00;69.50;;;;;;4172150;28;20336;-63
2022/09/17 08:16:24;;;;;;;0.00;0.00;;;17.90;69.80;;;;;;4175299;28;19932;-62
2022/09/17 08:19:05;;;;;;;0.13;0.13;;;17.90;70.10;;;;;;4175697;28;20059;-63
2022/09/17 08:21:48;;;;;;;0.00;0.00;;;17.90;70.40;;;;;;4175379;28;20518;-63
2022/09/17 08:24:29;;;;;;;0.00;0.00;;;17.90;70.70;;;;;;4175389;28;20055;-63
2022/09/17 08:27:10;;;;;;;0.22;0.22;;;18.00;71.10;;;;;;4175380;28;20573;-62
2022/09/17 08:29:51;;;;;;;0.00;0.00;;;18.00;71.30;;;;;;4179768;28;20123;-62
2022/09/17 08:32:32;;;;;;;0.00;0.00;;;18.00;71.20;;;;;;4175973;28;20052;-62
2022/09/17 08:35:15;;;;;;;0.00;0.00;;;18.10;71.20;;;;;;4178218;28;20118;-61
2022/09/17 08:37:57;;;;;;;0.00;0.00;;;18.10;71.10;;;;;;4178416;28;20055;-61
2022/09/17 08:40:50;;;;;;;0.00;0.00;;;18.10;70.60;;;;;;4176687;28;20056;-61
2022/09/17 08:43:33;;;;;;;0.00;0.00;;;18.10;70.50;;;;;;4177209;28;20052;-61
2022/09/17 08:46:14;;;;;;;0.00;0.00;;;18.10;71.40;;;;;;4177872;28;20170;-59
2022/09/17 08:49:06;;;;;;;0.00;0.00;;;18.20;70.40;;;;;;4162327;28;20179;-59
2022/09/17 08:52:01;;;;;;;0.00;0.00;;;18.20;70.50;;;;;;4161845;28;20063;-60
2022/09/17 08:54:55;;;;;;;0.00;0.00;;;18.30;70.50;;;;;;4177646;28;20098;-61
2022/09/17 08:57:43;;;;;;;0.00;0.00;;;18.30;70.10;;;;;;4161158;28;20052;-61
2022/09/17 09:00:25;;;;;;;0.00;0.00;;;18.30;70.00;;;;;;4161265;28;20056;-61
2022/09/17 09:03:20;;;;;;;1.13;1.02;;;18.40;69.70;;;;;;4161580;28;20463;-59
2022/09/17 09:06:02;;;;;;;0.00;0.00;;;18.40;69.10;;;;;;4156200;28;20060;-60
2022/09/17 09:08:49;;;;;;;0.00;0.00;;;18.30;69.00;;;;;;4185365;28;20059;-59
2022/09/17 09:11:33;;;;;;;0.00;0.00;;;18.30;69.60;;;;;;4191127;28;20059;-60
2022/09/17 09:14:22;;;;;;;0.20;0.20;;;18.30;70.00;;;;;;4161695;28;20056;-60
2022/09/17 09:17:07;;;;;;;0.00;0.00;;;18.30;70.30;;;;;;4161526;28;20519;-60
2022/09/17 09:19:48;;;;;;;0.00;0.00;;;18.30;70.50;;;;;;4175470;28;20048;-60
2022/09/17 09:22:45;;;;;;;0.00;0.00;;;18.30;70.50;;;;;;4176785;28;20820;-60
2022/09/17 09:25:31;;;;;;;0.00;0.00;;;18.30;70.50;;;;;;4178847;28;20107;-60
2022/09/17 09:28:37;;;;;;;0.00;0.00;;;18.30;70.80;;;;;;4178884;28;20060;-60
2022/09/17 09:31:39;;;;;;;0.00;0.00;;;18.30;70.60;;;;;;4177768;28;20550;-61
2022/09/17 09:34:22;;;;;;;0.00;0.00;;;18.40;70.50;;;;;;4161099;28;20180;-61
2022/09/17 09:37:17;;;;;;;0.05;0.05;;;18.40;70.30;;;;;;4160421;28;20060;-60
2022/09/17 09:40:16;;;;;;;0.00;0.00;;;18.40;70.20;;;;;;4168900;28;20056;-60
2022/09/17 09:43:01;;;;;;;0.00;0.00;;;18.40;70.00;;;;;;4177523;28;20134;-61
2022/09/17 09:46:09;;;;;;;0.00;0.00;;;18.40;70.00;;;;;;4177259;28;20052;-60
2022/09/17 09:49:01;;;;;;;0.00;0.00;;;18.40;70.00;;;;;;4159867;28;20947;-60
2022/09/17 09:51:52;;;;;;;0.00;0.00;;;18.40;69.80;;;;;;4160701;28;20060;-59
2022/09/17 09:54:47;;;;;;;0.00;0.00;;;18.40;69.90;;;;;;4161309;28;20065;-60
2022/09/17 09:57:39;;;;;;;0.00;0.00;;;18.40;69.70;;;;;;4161880;28;20476;-61
2022/09/17 10:00:27;;;;;;;0.00;0.00;;;18.40;69.70;;;;;;4160404;28;20056;-60
2022/09/17 10:03:16;;;;;;;0.00;0.00;;;18.40;69.50;;;;;;4153232;28;20128;-60
2022/09/17 10:05:59;;;;;;;0.00;0.00;;;18.40;69.40;;;;;;4144503;28;20100;-60
2022/09/17 10:08:42;;;;;;;0.00;0.00;;;18.40;69.50;;;;;;4143918;28;20064;-60
2022/09/17 10:11:25;;;;;;;0.63;0.63;;;18.30;70.30;;;;;;4150484;28;20055;-60
2022/09/17 10:14:23;;;;;;;0.35;0.35;;;18.30;69.60;;;;;;4144441;28;20055;-60
2022/09/17 10:17:14;;;;;;;0.10;0.10;;;18.40;69.90;;;;;;4144234;28;20065;-60
2022/09/17 10:20:16;;;;;;;0.25;0.25;;;18.40;70.00;;;;;;4144007;28;20192;-60
2022/09/17 10:23:06;;;;;;;0.00;0.00;;;18.40;69.90;;;;;;4144013;28;20049;-60
2022/09/17 10:25:48;;;;;;;12.95;1.45;;;18.50;69.60;;;;;;4144167;28;20061;-60
2022/09/17 10:28:46;;;;;;;1.83;1.05;;;18.50;69.80;;;;;;4144336;28;20056;-60
2022/09/17 10:31:27;;;;;;;0.17;0.17;;;18.50;69.60;;;;;;4160229;28;20059;-61
2022/09/17 10:34:20;;;;;;;0.35;0.35;;;18.50;68.60;;;;;;4160586;28;20134;-61
2022/09/17 10:37:02;;;;;;;0.03;0.03;;;18.60;67.70;;;;;;4159620;28;20060;-61
2022/09/17 10:39:47;;;;;;;0.32;0.32;;;18.60;65.80;;;;;;4167681;28;20060;-60
2022/09/17 10:42:28;;;;;;;1.00;0.57;;;18.60;64.90;;;;;;4160275;28;20184;-60
2022/09/17 10:45:24;;;;;;;0.52;0.52;;;18.60;65.30;;;;;;4160289;28;20056;-64
2022/09/17 10:48:05;;;;;;;0.00;0.00;;;18.60;64.50;;;;;;4159450;28;20052;-60
2022/09/17 10:50:49;;;;;;;0.00;0.00;;;18.60;65.40;;;;;;4176729;28;20126;-60
2022/09/17 10:53:31;;;;;;;0.80;0.80;;;18.60;64.80;;;;;;4176630;28;20063;-61
2022/09/17 10:56:20;;;;;;;0.00;0.00;;;18.60;64.70;;;;;;4173890;28;20102;-60
2022/09/17 10:59:22;;;;;;;5.05;1.45;;;18.60;64.70;;;;;;4176408;28;20052;-60
2022/09/17 11:02:19;;;;;;;0.70;0.70;;;18.60;64.60;;;;;;4176289;28;20111;-61
2022/09/17 11:05:07;;;;;;;0.08;0.08;;;18.60;64.90;;;;;;4171476;28;20118;-59
2022/09/17 11:07:55;;;;;;;0.13;0.13;;;18.60;63.00;;;;;;4175825;28;20078;-60
2022/09/17 11:10:44;;;;;;;3.58;2.33;;;18.60;61.80;;;;;;4176151;28;20052;-60
2022/09/17 11:13:33;;;;;;;0.20;0.20;;;18.60;61.00;;;;;;4159506;28;20521;-60
2022/09/17 11:16:28;;;;;;;0.00;0.00;;;18.60;61.70;;;;;;4159742;28;20052;-59
2022/09/17 11:19:20;;;;;;;0.63;0.63;;;18.60;62.30;;;;;;4159321;28;20423;-60
2022/09/17 11:22:10;;;;;;;0.22;0.22;;;18.60;61.20;;;;;;4158824;28;20411;-60
2022/09/17 11:25:06;;;;;;;0.00;0.00;;;18.60;60.20;;;;;;4160349;28;20235;-61
2022/09/17 11:27:58;;;;;;;0.00;0.00;;;18.70;60.30;;;;;;4191931;28;20416;-61
2022/09/17 11:30:50;;;;;;;0.00;0.00;;;18.70;59.70;;;;;;4192540;28;20090;-61
2022/09/17 11:33:57;;;;;;;1.02;1.02;;;18.70;60.20;;;;;;4188306;28;20118;-61
2022/09/17 11:36:53;;;;;;;2.08;1.70;;;18.70;60.90;;;;;;4188849;28;20056;-61
2022/09/17 11:39:42;;;;;;;0.00;0.00;;;18.80;60.60;;;;;;4184699;28;20055;-61
2022/09/17 11:42:27;;;;;;;0.00;0.00;;;18.70;60.10;;;;;;4155557;28;20052;-61
2022/09/17 11:45:17;;;;;;;0.25;0.25;;;18.80;60.00;;;;;;4154807;28;20111;-61
2022/09/17 11:48:07;;;;;;;0.88;0.88;;;18.70;59.80;;;;;;4151339;28;20055;-62
2022/09/17 11:50:52;;;;;;;0.00;0.00;;;18.70;60.70;;;;;;4159299;28;20132;-62
2022/09/17 11:53:39;;;;;;;0.10;0.10;;;18.70;61.00;;;;;;4157832;28;20078;-61
2022/09/17 11:56:25;;;;;;;1.30;0.75;;;18.70;61.90;;;;;;4158401;28;20053;-61
2022/09/17 11:59:14;;;;;;;1.65;0.90;;;18.70;62.80;;;;;;4157713;28;20167;-61
2022/09/17 12:02:02;;;;;;;1.88;1.85;;;18.70;64.80;;;;;;4159300;28;20047;-61
2022/09/17 12:04:47;;;;;;;0.00;0.00;;;18.80;65.20;;;;;;4158734;28;20514;-61
2022/09/17 12:07:36;;;;;;;0.82;0.82;;;18.80;63.10;;;;;;4159349;28;20060;-61
2022/09/17 12:10:38;;;;;;;2.83;1.98;;;18.70;62.80;;;;;;4170665;28;20052;-61
2022/09/17 12:13:30;;;;;;;2.00;1.90;;;18.80;64.70;;;;;;4174643;28;20056;-61
2022/09/17 12:16:16;;;;;;;1.83;1.73;;;18.80;64.80;;;;;;4164793;28;20059;-63
2022/09/17 12:19:07;;;;;;;3.55;1.63;;;18.80;65.40;;;;;;4167636;28;20538;-62
2022/09/17 12:21:57;;;;;;;3.53;2.08;;;18.80;65.70;;;;;;4172225;28;20055;-62
2022/09/17 12:24:43;;;;;;;1.10;1.10;;;18.90;63.70;;;;;;4169974;28;20186;-63
2022/09/17 12:27:36;;;;;;;9.38;2.50;;;18.90;63.40;;;;;;4150326;28;20057;-62
2022/09/17 12:30:21;;;;;;;1.25;1.25;;;18.90;64.60;;;;;;4156709;28;20187;-64
2022/09/17 12:33:18;;;;;;;16.63;4.53;;;18.90;64.60;;;;;;4162400;28;20043;-64
2022/09/17 12:36:32;;;;;;;1.83;1.75;;;18.90;67.10;;;;;;4174624;28;20178;-65
2022/09/17 12:39:38;;;;;;;2.22;2.13;;;18.90;70.40;;;;;;4174809;28;20090;-65
2022/09/17 12:42:37;;;;;;;0.28;0.28;;;18.90;72.20;;;;;;4172638;28;20060;-64
2022/09/17 12:45:34;;;;;;;0.32;0.32;;;18.90;70.80;;;;;;4178414;28;20051;-63
2022/09/17 12:48:35;;;;;;;1.23;1.17;;;18.90;69.80;;;;;;4174760;28;20127;-63
2022/09/17 12:51:45;;;;;;;0.25;0.25;;;18.90;68.60;;;;;;4174827;28;20577;-63
2022/09/17 12:54:53;;;;;;;3.45;3.13;;;18.90;69.30;;;;;;4159612;28;20072;-63
2022/09/17 12:57:42;;;;;;;1.55;1.45;;;18.90;69.10;;;;;;4171684;28;20055;-61
2022/09/17 13:00:27;;;;;;;0.00;0.00;;;19.00;68.90;;;;;;4181052;28;20419;-61
2022/09/17 13:03:13;;;;;;;;;;;18.90;69.10;;;;;;4192285;28;20047;-61
2022/09/17 13:06:35;;;;;;;1.17;1.17;;;18.90;69.20;;;;;;4189961;28;20013;-63
2022/09/17 13:09:51;;;;;;;0.30;0.30;;;18.90;70.50;;;;;;4178300;28;20075;-63
2022/09/17 13:12:38;;;;;;;0.75;0.75;;;19.00;69.80;;;;;;4174960;28;20095;-63
2022/09/17 13:15:49;;;;;;;1.83;1.75;;;18.90;69.60;;;;;;4183294;28;20064;-63
2022/09/17 13:18:38;;;;;;;0.10;0.10;;;18.90;69.10;;;;;;4192554;28;20047;-63
2022/09/17 13:21:30;;;;;;;0.10;0.10;;;18.90;68.00;;;;;;4192816;28;20060;-63
2022/09/17 13:24:19;;;;;;;0.45;0.45;;;18.90;68.30;;;;;;4193496;28;20506;-63
2022/09/17 13:27:06;;;;;;;0.00;0.00;;;18.90;68.10;;;;;;4177545;28;20570;-63
2022/09/17 13:30:00;;;;;;;0.00;0.00;;;18.90;67.10;;;;;;4176260;28;20052;-63
2022/09/17 13:32:46;;;;;;;0.00;0.00;;;18.90;67.60;;;;;;4182940;28;20053;-63
2022/09/17 13:35:49;;;;;;;0.00;0.00;;;18.90;66.30;;;;;;4192865;28;20144;-61
2022/09/17 13:38:42;;;;;;;0.22;0.22;;;18.90;66.40;;;;;;4194264;28;20059;-63
2022/09/17 13:41:26;;;;;;;0.15;0.15;;;18.80;66.50;;;;;;4158151;28;20055;-63
2022/09/17 13:44:11;;;;;;;1.00;0.93;;;18.80;66.80;;;;;;4169511;28;20060;-63
2022/09/17 13:46:52;;;;;;;0.43;0.43;;;18.90;66.90;;;;;;4170827;28;20052;-63
2022/09/17 13:49:32;;;;;;;0.00;0.00;;;18.90;66.50;;;;;;4161005;28;20099;-61
2022/09/17 13:52:14;;;;;;;0.28;0.28;;;18.90;66.00;;;;;;4161244;28;20056;-60
2022/09/17 13:54:55;;;;;;;1.40;1.30;;;18.90;64.50;;;;;;4162573;28;20607;-61
2022/09/17 13:57:48;;;;;;;0.20;0.20;;;18.90;65.70;;;;;;4177099;28;20138;-61
2022/09/17 14:00:52;;;;;;;0.00;0.00;;;18.90;65.90;;;;;;4177748;28;20071;-61
2022/09/17 14:03:53;;;;;;;0.00;0.00;;;19.00;65.50;;;;;;4177449;28;20056;-61
2022/09/17 14:06:52;;;;;;;0.00;0.00;;;18.90;62.40;;;;;;4176938;28;20056;-61
2022/09/17 14:09:44;;;;;;;1.25;1.15;;;18.90;61.50;;;;;;4177802;28;20148;-60
2022/09/17 14:12:51;;;;;;;0.63;0.63;;;18.90;62.10;;;;;;4177141;28;20059;-61
2022/09/17 14:15:36;;;;;;;0.00;0.00;;;19.00;62.60;;;;;;4177074;28;20056;-61
2022/09/17 14:18:52;;;;;;;0.00;0.00;;;19.00;62.40;;;;;;4177003;28;20059;-61
2022/09/17 14:21:34;;;;;;;0.38;0.38;;;19.00;61.00;;;;;;4176946;28;20082;-61
2022/09/17 14:24:21;;;;;;;0.20;0.20;;;19.00;59.80;;;;;;4176891;28;20155;-61
2022/09/17 14:27:14;;;;;;;0.57;0.57;;;19.00;59.70;;;;;;4159571;28;20072;-61
2022/09/17 14:30:06;;;;;;;0.00;0.00;;;19.10;60.70;;;;;;4160249;28;20049;-61
2022/09/17 14:32:58;;;;;;;0.00;0.00;;;19.10;61.80;;;;;;4160742;28;20056;-61